Pagina principale
METAR-TAF:

METAR-TAF

Aeroporti :

Aeroporto di Guidonia

Guidonia Montecelio, Italia

latitudine: 42-00N, longitudine: 012-44E, altezza: 88 m

Osservazione

Il bollettino è stato emesso 49 minuti fa, alle 08:55 UTC
Vento 1 kt da sud-est
Temperature 21°C
Umidità 69%
Pressione 1017 hPa
Visibilità 10 km o più
Poco nuvoloso ad un'altezza di 4000 ft

METAR: LIRG 170855Z 13001KT 9999 FEW040 21/15 Q1017 RMK BKN SCT080 MON NE LIB NC VIS MIN 9999 BLU

Ora: 11:44 (09:44 UTC)

Previsione

Il bollettino è stato emesso 1 ora e 44 minuti fa, alle 08:00 UTC
Previsione valida dal 17 alle 09 UTC al 17 alle 18 UTC
Vento 3 kt da direzioni variabili
Visibilità 10 km o più
Nubi sparse ad un'altezza di 3500 ft
Temporaneamente
dal 17 alle 12 UTC al 17 alle 18 UTC
pioggia

TAF: LIRG 170800Z 1709/1718 VRB03KT 9999 SCT035 TEMPO 1712/1718 RA

Osservazioni e previsioni meteorologiche di più di 4000 aeroporti (messaggi METAR e TAF).

Le stazioni disponibili sono rappresentate dai dischi gialli e rossi sulla carta.

Puntare il mouse per vedere il nome della stazione.

Clicca sopra per visualizzare le osservazioni e previsioni meteorologiche.

Per cambiare la mappa : fare clic sui pulsanti verdi con una croce nera per ingrandire, il pulsante verde con un trattino per diminuire, o sulla freccia verde per le mappe adiacenti.


METAR-TAF: